Tobias, Nebraska
Current Conditions -  °F | °C
As of 2:15 PM on Thursday 29 Jan 2015 (Local Time) from KHJH Reporting Station
Scattered Clouds Scattered Clouds  
Wind Chill: 37°   Ceiling: Unl
Heat Index: 44°   Visibility: 10mi
Dew Point: 24°   Wind: 14mph
Humidity: 45%   Direction: 350°N
Pressure: 30.44"   Gusts: 23mph
Location:  40.42°N, 97.34°W
Report Text: KHJH 292015Z AUTO 35012G20KT 10SM SCT038 07/M05 A3044 RMK AO2 T00661047
Loading
Personal Weather Stations






























Interactive Weather Map New forecast layout! Learn more

10-Day Weather Forecast

Advertisements
Track Severe Weather on mobile